Lowest pressure

Not for real navigation. The accuracy of this data is not assured See disclaimer for more information



ICAO NAME COUNTRY WIND Kt GUST Kt VIS m TEMP/DEW C BARO METAR
BIHN Akurnes Iceland 18 0 9999 12/4 29.03 BIHN 181200Z 36018KT 9999 -DZ VCSH FEW028 BKN042 BKN055 12/04 Q0983
BIEG Egilsstadir Iceland 16 26 9999 7/6 29.06 BIEG 181200Z 36016G26KT 9999 -DZRA SCT006 OVC015 07/06 Q0984
EKVG Soervaag / Vagar Denmark 21 32 7000 9/8 29.12 EKVG 181220Z AUTO 23021G32KT 200V280 7000NDV OVC007/// 09/08 Q0986 RMK OVC008/// WIND 850FT VRB15G50
SAWH Ushuaia Aerodrome Argentina 20 30 9999 7/-4 29.12 SAWH 181200Z 32020G30KT 9999 VCSH SCT035 SCT080 07/M04 Q0986
SCRM 12 0 5000 -7/-8 29.15 SCRM 181200Z 10012KT 5000 -SN OVC015 M07/M08 Q0987

Show more